Weather at Damblain Air Base [CLOSED]

Public forecast

Using degrees Celsius for public forecast. Weather courtesy of forecast.io.

Closest aviation weather report (METAR) to Damblain Air Base

Closest report is Épinal-Mirecourt Airport, 21.7 nm (40.1 km) NE. Retrieved 2020/11/27 16:30 UTC (7 minutes ago):

LFSG 271630Z AUTO VRB02KT CAVOK 07/04 Q1017

Closest aviation forecast (TAF) to Damblain Air Base

Closest forecast is Nancy-Ochey (BA 133) Air Base, 32.0 nm (59.3 km) NNE. Retrieved 2020/11/27 14:09 UTC (2 hours ago):

TAF LFSO 271405Z 2714/2809 CNL